createdAt,value
2024-05-09T00:00:31.590Z,24.91
2024-05-09T00:01:28.166Z,24.91
2024-05-09T00:02:27.252Z,24.90
2024-05-09T00:03:27.188Z,24.93
2024-05-09T00:04:27.220Z,24.91
2024-05-09T00:05:27.235Z,24.89
2024-05-09T00:06:27.197Z,24.91
2024-05-09T00:07:27.211Z,24.91
2024-05-09T00:08:27.232Z,24.90
2024-05-09T00:09:27.233Z,24.91
2024-05-09T00:10:35.030Z,24.93
2024-05-09T00:11:28.223Z,24.90
2024-05-09T00:12:27.246Z,24.90
2024-05-09T00:13:27.179Z,24.89
2024-05-09T00:14:27.264Z,24.91
2024-05-09T00:15:27.159Z,24.91
2024-05-09T00:16:27.185Z,24.89
2024-05-09T00:17:27.330Z,24.89
2024-05-09T00:18:27.428Z,24.89
2024-05-09T00:19:27.282Z,24.89
2024-05-09T00:20:33.434Z,24.89
2024-05-09T00:21:28.202Z,24.90
2024-05-09T00:22:27.217Z,24.91
2024-05-09T00:23:27.260Z,24.87
2024-05-09T00:24:27.173Z,24.89
2024-05-09T00:25:27.177Z,24.89
2024-05-09T00:26:27.336Z,24.89
2024-05-09T00:27:27.192Z,24.90
2024-05-09T00:28:27.206Z,24.90
2024-05-09T00:29:27.336Z,24.91
2024-05-09T00:30:33.658Z,24.89
2024-05-09T00:31:28.209Z,24.90
2024-05-09T00:32:27.761Z,24.90
2024-05-09T00:33:27.293Z,24.89
2024-05-09T00:34:27.279Z,24.90
2024-05-09T00:35:27.243Z,24.87
2024-05-09T00:36:27.188Z,24.91
2024-05-09T00:37:27.222Z,24.89
2024-05-09T00:38:27.243Z,24.87
2024-05-09T00:39:27.193Z,24.90
2024-05-09T00:40:35.670Z,24.87
2024-05-09T00:41:28.232Z,24.87
2024-05-09T00:42:27.203Z,24.89
2024-05-09T00:43:27.210Z,24.87
2024-05-09T00:44:27.274Z,24.89
2024-05-09T00:45:27.202Z,24.86
2024-05-09T00:46:27.196Z,24.87
2024-05-09T00:47:27.852Z,24.90
2024-05-09T00:48:27.414Z,24.89
2024-05-09T00:49:27.357Z,24.86
2024-05-09T00:50:35.474Z,24.87
2024-05-09T00:51:28.246Z,24.85
2024-05-09T00:52:27.264Z,24.86
2024-05-09T00:53:27.309Z,24.86
2024-05-09T00:54:27.214Z,24.85
2024-05-09T00:55:27.227Z,24.86
2024-05-09T00:56:27.344Z,24.86
2024-05-09T00:57:27.271Z,24.86
2024-05-09T00:58:27.222Z,24.90
2024-05-09T00:59:27.373Z,24.86
2024-05-09T01:00:35.543Z,24.86
2024-05-09T01:01:28.290Z,24.85
2024-05-09T01:02:27.804Z,24.86
2024-05-09T01:03:27.784Z,24.86
2024-05-09T01:04:27.268Z,24.86
2024-05-09T01:05:27.267Z,24.86
2024-05-09T01:06:27.271Z,24.86
2024-05-09T01:07:27.265Z,24.87
2024-05-09T01:08:27.269Z,24.85
2024-05-09T01:09:27.251Z,24.86
2024-05-09T01:11:27.330Z,24.86
2024-05-09T01:12:27.422Z,24.86
2024-05-09T01:13:27.269Z,24.87
2024-05-09T01:14:27.277Z,24.80
2024-05-09T01:15:27.242Z,24.83
2024-05-09T01:16:27.271Z,24.85
2024-05-09T01:17:27.417Z,24.85
2024-05-09T01:18:27.357Z,24.85
2024-05-09T01:19:27.412Z,24.83
2024-05-09T01:20:36.824Z,24.85
2024-05-09T01:21:28.265Z,24.82
2024-05-09T01:22:27.274Z,24.85
2024-05-09T01:23:27.318Z,24.83
2024-05-09T01:24:27.245Z,24.82
2024-05-09T01:25:27.258Z,24.83
2024-05-09T01:26:27.296Z,24.82
2024-05-09T01:27:27.275Z,24.82
2024-05-09T01:28:27.276Z,24.85
2024-05-09T01:29:27.272Z,24.83
2024-05-09T01:30:33.942Z,24.85
2024-05-09T01:31:28.378Z,24.82
2024-05-09T01:32:27.477Z,24.83
2024-05-09T01:33:27.652Z,24.83
2024-05-09T01:34:27.287Z,24.83
2024-05-09T01:35:27.351Z,24.83
2024-05-09T01:36:27.281Z,24.83
2024-05-09T01:37:27.279Z,24.83
2024-05-09T01:38:27.285Z,24.82
2024-05-09T01:39:27.279Z,24.82
2024-05-09T01:40:36.361Z,24.79
2024-05-09T01:41:28.351Z,24.83
2024-05-09T01:42:27.312Z,24.80
2024-05-09T01:43:27.283Z,24.82
2024-05-09T01:44:27.376Z,24.80
2024-05-09T01:45:27.291Z,24.80
2024-05-09T01:46:27.287Z,24.83
2024-05-09T01:47:27.413Z,24.82
2024-05-09T01:48:27.366Z,24.83
2024-05-09T01:49:27.346Z,24.82
2024-05-09T01:51:27.305Z,24.80
2024-05-09T01:52:27.309Z,24.82
2024-05-09T01:53:27.322Z,24.82
2024-05-09T01:54:27.283Z,24.82
2024-05-09T01:55:27.294Z,24.80
2024-05-09T01:56:27.399Z,24.82
2024-05-09T01:57:27.345Z,24.80
2024-05-09T01:58:27.344Z,24.80
2024-05-09T01:59:27.554Z,24.82
2024-05-09T02:00:36.366Z,24.82
2024-05-09T02:01:28.443Z,24.80
2024-05-09T02:02:28.359Z,24.80
2024-05-09T02:03:27.451Z,24.80
2024-05-09T02:04:27.484Z,24.80
2024-05-09T02:05:27.406Z,24.82
2024-05-09T02:06:27.333Z,24.82
2024-05-09T02:07:27.328Z,24.82
2024-05-09T02:08:27.348Z,24.80
2024-05-09T02:09:27.319Z,24.80
2024-05-09T02:11:27.480Z,24.80
2024-05-09T02:12:27.488Z,24.82
2024-05-09T02:13:27.406Z,24.82
2024-05-09T02:14:27.699Z,24.82
2024-05-09T02:15:27.477Z,24.80
2024-05-09T02:16:27.478Z,24.82
2024-05-09T02:17:27.706Z,24.80
2024-05-09T02:18:27.596Z,24.79
2024-05-09T02:19:27.645Z,24.82
2024-05-09T02:20:33.881Z,24.76
2024-05-09T02:21:28.579Z,24.80
2024-05-09T02:22:27.585Z,24.79
2024-05-09T02:23:27.654Z,24.79
2024-05-09T02:24:27.582Z,24.80
2024-05-09T02:25:27.606Z,24.79
2024-05-09T02:26:27.668Z,24.80
2024-05-09T02:27:27.602Z,24.79
2024-05-09T02:28:27.607Z,24.79
2024-05-09T02:29:27.686Z,24.77
2024-05-09T02:30:36.326Z,24.80
2024-05-09T02:31:28.600Z,24.82
2024-05-09T02:32:27.714Z,24.79
2024-05-09T02:33:27.894Z,24.79
2024-05-09T02:34:27.602Z,24.76
2024-05-09T02:35:27.703Z,24.80
2024-05-09T02:36:27.602Z,24.76
2024-05-09T02:37:27.629Z,24.76
2024-05-09T02:38:27.589Z,24.80
2024-05-09T02:39:27.595Z,24.77
2024-05-09T02:40:35.741Z,24.76
2024-05-09T02:41:28.666Z,24.77
2024-05-09T02:42:27.625Z,24.77
2024-05-09T02:43:27.603Z,24.77
2024-05-09T02:44:27.687Z,24.77
2024-05-09T02:45:27.603Z,24.76
2024-05-09T02:46:27.764Z,24.75
2024-05-09T02:47:27.744Z,24.75
2024-05-09T02:48:27.742Z,24.77
2024-05-09T02:49:27.731Z,24.76
2024-05-09T02:50:34.434Z,24.76
2024-05-09T02:51:28.632Z,24.76
2024-05-09T02:52:27.625Z,24.76
2024-05-09T02:53:27.656Z,24.76
2024-05-09T02:54:27.634Z,24.76
2024-05-09T02:55:27.612Z,24.76
2024-05-09T02:56:27.735Z,24.75
2024-05-09T02:57:27.631Z,24.76
2024-05-09T02:58:27.638Z,24.76
2024-05-09T02:59:27.824Z,24.77
2024-05-09T03:00:35.271Z,24.77
2024-05-09T03:01:28.684Z,24.75
2024-05-09T03:02:27.735Z,24.76
2024-05-09T03:03:27.822Z,24.75
2024-05-09T03:04:27.634Z,24.76
2024-05-09T03:05:27.683Z,24.76
2024-05-09T03:06:27.634Z,24.73
2024-05-09T03:07:27.647Z,24.75
2024-05-09T03:08:27.654Z,24.76
2024-05-09T03:09:27.635Z,24.75
2024-05-09T03:11:27.752Z,24.76
2024-05-09T03:12:27.787Z,24.75
2024-05-09T03:13:27.624Z,24.73
2024-05-09T03:14:27.669Z,24.75
2024-05-09T03:15:27.626Z,24.73
2024-05-09T03:16:27.635Z,24.73
2024-05-09T03:17:27.829Z,24.75
2024-05-09T03:18:27.739Z,24.76
2024-05-09T03:19:27.732Z,24.72
2024-05-09T03:20:33.209Z,24.75
2024-05-09T03:21:28.701Z,24.75
2024-05-09T03:22:27.702Z,24.73
2024-05-09T03:23:27.697Z,24.75
2024-05-09T03:24:27.648Z,24.75
2024-05-09T03:25:27.669Z,24.70
2024-05-09T03:26:27.776Z,24.73
2024-05-09T03:27:27.667Z,24.73
2024-05-09T03:28:27.676Z,24.72
2024-05-09T03:29:27.730Z,24.75
2024-05-09T03:30:36.049Z,24.72
2024-05-09T03:31:28.695Z,24.76
2024-05-09T03:32:27.853Z,24.73
2024-05-09T03:33:27.961Z,24.72
2024-05-09T03:34:27.743Z,24.73
2024-05-09T03:35:27.842Z,24.73
2024-05-09T03:36:27.703Z,24.73
2024-05-09T03:37:27.744Z,24.73
2024-05-09T03:38:27.712Z,24.73
2024-05-09T03:39:27.703Z,24.72
2024-05-09T03:40:30.982Z,24.72
2024-05-09T03:41:27.795Z,24.70
2024-05-09T03:42:27.701Z,24.75
2024-05-09T03:43:27.707Z,24.72
2024-05-09T03:44:27.818Z,24.73
2024-05-09T03:45:27.718Z,24.70
2024-05-09T03:46:27.720Z,24.72
2024-05-09T03:47:27.995Z,24.73
2024-05-09T03:48:27.850Z,24.72
2024-05-09T03:49:27.797Z,24.72
2024-05-09T03:50:33.706Z,24.70
2024-05-09T03:51:28.708Z,24.73
2024-05-09T03:52:27.772Z,24.73
2024-05-09T03:53:27.761Z,24.72
2024-05-09T03:54:27.737Z,24.70
2024-05-09T03:55:27.732Z,24.73
2024-05-09T03:56:27.811Z,24.70
2024-05-09T03:57:27.767Z,24.72
2024-05-09T03:58:27.728Z,24.73
2024-05-09T03:59:27.905Z,24.70
2024-05-09T04:00:35.254Z,24.70
2024-05-09T04:01:28.770Z,24.70
2024-05-09T04:02:27.874Z,24.72
2024-05-09T04:03:28.005Z,24.73
2024-05-09T04:04:27.806Z,24.73
2024-05-09T04:05:27.774Z,24.70
2024-05-09T04:06:27.752Z,24.72
2024-05-09T04:07:27.774Z,24.72
2024-05-09T04:08:27.782Z,24.72
2024-05-09T04:09:27.750Z,24.73
2024-05-09T04:10:32.803Z,24.72
2024-05-09T04:11:28.834Z,24.69
2024-05-09T04:12:27.870Z,24.72
2024-05-09T04:13:27.752Z,24.70
2024-05-09T04:14:27.895Z,24.73
2024-05-09T04:15:27.750Z,24.70
2024-05-09T04:16:27.762Z,24.72
2024-05-09T04:17:27.893Z,24.72
2024-05-09T04:18:35.366Z,24.67
2024-05-09T04:19:35.257Z,24.69
2024-05-09T04:20:39.030Z,24.70
2024-05-09T04:21:36.156Z,24.69
2024-05-09T04:22:35.179Z,24.70
2024-05-09T04:23:35.227Z,24.69
2024-05-09T04:24:35.193Z,24.69
2024-05-09T04:25:35.215Z,24.69
2024-05-09T04:26:35.223Z,24.67
2024-05-09T04:27:35.197Z,24.70
2024-05-09T04:28:35.217Z,24.70
2024-05-09T04:29:35.210Z,24.70
2024-05-09T04:30:39.227Z,24.69
2024-05-09T04:31:47.310Z,24.66
2024-05-09T04:32:47.398Z,24.69
2024-05-09T04:33:47.355Z,24.70
2024-05-09T04:34:47.319Z,24.66
2024-05-09T04:35:47.336Z,24.69
2024-05-09T04:36:47.275Z,24.69
2024-05-09T04:37:47.264Z,24.67
2024-05-09T04:38:47.272Z,24.67
2024-05-09T04:39:47.249Z,24.67
2024-05-09T04:40:47.341Z,24.70
2024-05-09T04:41:47.279Z,24.67
2024-05-09T04:42:47.298Z,24.70
2024-05-09T04:43:47.295Z,24.69
2024-05-09T04:44:47.246Z,24.70
2024-05-09T04:45:47.276Z,24.70
2024-05-09T04:46:47.333Z,24.67
2024-05-09T04:47:47.516Z,24.69
2024-05-09T04:48:47.291Z,24.69
2024-05-09T04:49:47.277Z,24.69
2024-05-09T04:50:47.340Z,24.69
2024-05-09T04:51:47.274Z,24.69
2024-05-09T04:52:47.328Z,24.70
2024-05-09T04:53:47.312Z,24.70
2024-05-09T04:54:47.275Z,24.69
2024-05-09T04:55:47.437Z,24.69
2024-05-09T04:56:47.277Z,24.69
2024-05-09T04:57:47.294Z,24.72
2024-05-09T04:58:47.359Z,24.72
2024-05-09T04:59:47.384Z,24.69
2024-05-09T05:00:47.515Z,24.69
2024-05-09T05:01:47.555Z,24.69
2024-05-09T05:02:47.576Z,24.72
2024-05-09T05:03:47.647Z,24.70
2024-05-09T05:04:47.717Z,24.69
2024-05-09T05:05:47.579Z,24.69
2024-05-09T05:06:47.561Z,24.69
2024-05-09T05:07:47.642Z,24.70
2024-05-09T05:08:47.668Z,24.70
2024-05-09T05:09:47.700Z,24.70
2024-05-09T05:10:48.642Z,24.70
2024-05-09T05:11:47.870Z,24.69
2024-05-09T05:12:47.801Z,24.70
2024-05-09T05:13:47.853Z,24.69
2024-05-09T05:14:47.864Z,24.70
2024-05-09T05:15:47.866Z,24.70
2024-05-09T05:16:47.974Z,24.70
2024-05-09T05:17:48.138Z,24.70
2024-05-09T05:18:48.039Z,24.72
2024-05-09T05:19:48.206Z,24.72
2024-05-09T05:20:48.166Z,24.69
2024-05-09T05:21:48.113Z,24.69
2024-05-09T05:22:48.188Z,24.73
2024-05-09T05:23:48.211Z,24.70
2024-05-09T05:24:48.211Z,24.72
2024-05-09T05:25:48.514Z,24.72
2024-05-09T05:26:48.304Z,24.69
2024-05-09T05:27:48.311Z,24.69
2024-05-09T05:28:48.398Z,24.72
2024-05-09T05:29:48.427Z,24.70
2024-05-09T05:30:48.459Z,24.70
2024-05-09T05:31:48.557Z,24.72
2024-05-09T05:32:48.707Z,24.70
2024-05-09T05:33:48.581Z,24.75
2024-05-09T05:34:48.607Z,24.70
2024-05-09T05:35:48.600Z,24.72
2024-05-09T05:36:48.612Z,24.73
2024-05-09T05:37:48.732Z,24.73
2024-05-09T05:38:48.773Z,24.73
2024-05-09T05:39:48.718Z,24.73
2024-05-09T05:40:48.763Z,24.75
2024-05-09T05:41:48.790Z,24.75
2024-05-09T05:42:48.793Z,24.75
2024-05-09T05:43:48.944Z,24.73
2024-05-09T05:44:48.901Z,24.76
2024-05-09T05:45:48.923Z,24.77
2024-05-09T05:46:48.990Z,24.77
2024-05-09T05:47:49.096Z,24.77
2024-05-09T05:48:49.340Z,24.76
2024-05-09T05:49:49.056Z,24.77
2024-05-09T05:50:49.153Z,24.79
2024-05-09T05:51:49.147Z,24.77
2024-05-09T05:52:49.148Z,24.79
2024-05-09T05:53:49.180Z,24.82
2024-05-09T05:54:49.184Z,24.82
2024-05-09T05:55:49.242Z,24.82
2024-05-09T05:56:49.258Z,24.83
2024-05-09T05:57:49.312Z,24.82
2024-05-09T05:58:49.347Z,24.86
2024-05-09T05:59:49.342Z,24.89
2024-05-09T06:00:49.408Z,24.89
2024-05-09T06:01:49.431Z,24.89
2024-05-09T06:02:49.547Z,24.91
2024-05-09T06:03:49.500Z,24.93
2024-05-09T06:04:49.568Z,24.91
2024-05-09T06:05:49.558Z,24.90
2024-05-09T06:06:49.474Z,24.91
2024-05-09T06:07:49.561Z,24.90
2024-05-09T06:08:49.539Z,24.91
2024-05-09T06:09:50.534Z,24.93
2024-05-09T06:10:49.753Z,24.91
2024-05-09T06:11:49.681Z,24.93
2024-05-09T06:12:49.629Z,24.91
2024-05-09T06:13:49.677Z,24.90
2024-05-09T06:14:49.680Z,24.91
2024-05-09T06:15:49.740Z,24.90
2024-05-09T06:16:49.763Z,24.87
2024-05-09T06:17:49.899Z,24.90
2024-05-09T06:18:49.982Z,24.89
2024-05-09T06:19:49.938Z,24.90
2024-05-09T06:20:49.903Z,24.91
2024-05-09T06:21:49.838Z,24.87
2024-05-09T06:22:49.945Z,24.89
2024-05-09T06:23:49.911Z,24.90
2024-05-09T06:24:49.923Z,24.89
2024-05-09T06:25:50.010Z,24.90
2024-05-09T06:26:49.973Z,24.90
2024-05-09T06:27:50.007Z,24.93
2024-05-09T06:28:50.083Z,24.90
2024-05-09T06:29:50.052Z,24.93
2024-05-09T06:30:50.068Z,24.90
2024-05-09T06:31:50.148Z,24.91
2024-05-09T06:32:50.249Z,24.91
2024-05-09T06:33:50.293Z,24.93
2024-05-09T06:34:50.232Z,24.91
2024-05-09T06:35:50.261Z,24.93
2024-05-09T06:36:50.256Z,24.93
2024-05-09T06:37:50.264Z,24.94
2024-05-09T06:38:50.307Z,24.94
2024-05-09T06:39:50.275Z,24.96
2024-05-09T06:40:50.314Z,24.99
2024-05-09T06:41:50.314Z,24.97
2024-05-09T06:42:50.332Z,24.99
2024-05-09T06:43:50.383Z,25.02
2024-05-09T06:44:50.356Z,25.02
2024-05-09T06:45:50.555Z,25.05
2024-05-09T06:46:50.428Z,25.03
2024-05-09T06:47:50.516Z,25.03
2024-05-09T06:48:50.654Z,25.05
2024-05-09T06:49:50.551Z,25.09
2024-05-09T06:50:50.657Z,25.07
2024-05-09T06:51:50.429Z,25.11
2024-05-09T06:52:50.498Z,25.10
2024-05-09T06:53:50.432Z,25.10
2024-05-09T06:54:50.488Z,25.10
2024-05-09T06:55:50.544Z,25.11
2024-05-09T06:56:50.477Z,25.10
2024-05-09T06:57:50.484Z,25.10
2024-05-09T06:58:50.524Z,25.10
2024-05-09T06:59:50.498Z,25.11
2024-05-09T07:00:50.564Z,25.16
2024-05-09T07:01:50.630Z,25.11
2024-05-09T07:02:50.573Z,25.11
2024-05-09T07:03:50.559Z,25.11
2024-05-09T07:04:50.658Z,25.13
2024-05-09T07:05:50.587Z,25.09
2024-05-09T07:06:50.563Z,25.09
2024-05-09T07:07:50.594Z,25.07
2024-05-09T07:08:52.398Z,25.07
2024-05-09T07:09:50.610Z,25.06
2024-05-09T07:10:50.695Z,25.06
2024-05-09T07:11:50.769Z,25.06
2024-05-09T07:12:50.643Z,25.06
2024-05-09T07:13:50.813Z,25.06
2024-05-09T07:14:50.711Z,25.06
2024-05-09T07:15:50.712Z,25.05
2024-05-09T07:16:50.768Z,25.05
2024-05-09T07:17:50.787Z,25.03
2024-05-09T07:18:50.990Z,25.03
2024-05-09T07:19:50.833Z,25.07
2024-05-09T07:20:51.171Z,25.06
2024-05-09T07:21:50.737Z,25.03
2024-05-09T07:22:50.805Z,25.05
2024-05-09T07:23:50.793Z,25.05
2024-05-09T07:24:50.786Z,25.05
2024-05-09T07:25:50.858Z,25.06
2024-05-09T07:26:50.869Z,25.05
2024-05-09T07:27:50.815Z,25.06
2024-05-09T07:28:50.923Z,25.05
2024-05-09T07:29:50.828Z,25.06
2024-05-09T07:30:50.862Z,25.06
2024-05-09T07:31:50.924Z,25.07
2024-05-09T07:32:51.052Z,25.06
2024-05-09T07:33:51.047Z,25.03
2024-05-09T07:34:50.921Z,25.07
2024-05-09T07:35:50.903Z,25.05
2024-05-09T07:36:50.896Z,25.07
2024-05-09T07:37:50.956Z,25.09
2024-05-09T07:38:50.965Z,25.06
2024-05-09T07:39:50.902Z,25.10
2024-05-09T07:40:50.990Z,25.07
2024-05-09T07:41:50.936Z,25.10
2024-05-09T07:42:50.984Z,25.09
2024-05-09T07:43:50.990Z,25.09
2024-05-09T07:44:50.952Z,25.13
2024-05-09T07:45:54.265Z,25.13
2024-05-09T07:48:13.590Z,25.14
2024-05-09T07:49:16.436Z,25.13
2024-05-09T07:51:32.737Z,25.13
2024-05-09T07:53:17.577Z,25.14
2024-05-09T07:53:35.382Z,25.14
2024-05-09T07:53:54.785Z,25.11
2024-05-09T07:54:52.234Z,25.16
2024-05-09T07:55:51.100Z,25.16
2024-05-09T07:56:51.168Z,25.17
2024-05-09T07:57:51.069Z,25.16
2024-05-09T07:58:51.336Z,25.14
2024-05-09T07:59:51.014Z,25.19
2024-05-09T08:00:51.083Z,25.17
2024-05-09T08:01:51.170Z,25.19
2024-05-09T08:02:51.047Z,25.20
2024-05-09T08:03:51.132Z,25.20
2024-05-09T08:04:51.122Z,25.20
2024-05-09T08:05:51.100Z,25.23
2024-05-09T08:06:51.074Z,25.23
2024-05-09T08:07:51.032Z,25.26
2024-05-09T08:08:51.041Z,25.24
2024-05-09T08:09:51.095Z,25.26
2024-05-09T08:10:51.090Z,25.26
2024-05-09T08:11:51.080Z,25.26
2024-05-09T08:12:51.102Z,25.27
2024-05-09T08:13:51.016Z,25.27
2024-05-09T08:14:51.025Z,25.29
2024-05-09T08:15:51.066Z,25.27
2024-05-09T08:16:51.049Z,25.26
2024-05-09T08:17:51.084Z,25.27
2024-05-09T08:18:51.158Z,25.26
2024-05-09T08:19:51.073Z,25.26
2024-05-09T08:20:51.056Z,25.27
2024-05-09T08:21:51.111Z,25.29
2024-05-09T08:22:51.054Z,25.30
2024-05-09T08:23:51.019Z,25.30
2024-05-09T08:24:51.055Z,25.30
2024-05-09T08:25:51.054Z,25.31
2024-05-09T08:26:51.054Z,25.31
2024-05-09T08:27:51.145Z,25.36
2024-05-09T08:28:51.063Z,25.33
2024-05-09T08:29:51.088Z,25.33
2024-05-09T08:30:51.168Z,25.36
2024-05-09T08:31:51.139Z,25.37
2024-05-09T08:32:51.359Z,25.37
2024-05-09T08:33:51.413Z,25.37
2024-05-09T08:34:51.428Z,25.37
2024-05-09T08:35:51.396Z,25.37
2024-05-09T08:36:51.481Z,25.38
2024-05-09T08:37:51.578Z,25.38
2024-05-09T08:38:51.571Z,25.37
2024-05-09T08:39:51.743Z,25.38
2024-05-09T08:40:51.765Z,25.37
2024-05-09T08:41:51.782Z,25.37
2024-05-09T08:42:51.968Z,25.40
2024-05-09T08:43:51.932Z,25.40
2024-05-09T08:44:51.965Z,25.38
2024-05-09T08:45:52.125Z,25.41
2024-05-09T08:46:52.130Z,25.38
2024-05-09T08:47:52.341Z,25.40
2024-05-09T08:48:52.385Z,25.41
2024-05-09T08:49:52.414Z,25.38
2024-05-09T08:50:52.434Z,25.38
2024-05-09T08:51:52.502Z,25.40
2024-05-09T08:52:52.619Z,25.40
2024-05-09T08:53:52.591Z,25.37
2024-05-09T08:54:52.757Z,25.38
2024-05-09T08:55:52.744Z,25.40
2024-05-09T08:56:52.815Z,25.40
2024-05-09T08:57:52.958Z,25.40
2024-05-09T08:58:52.950Z,25.36
2024-05-09T08:59:53.012Z,25.40
2024-05-09T09:00:53.161Z,25.40
2024-05-09T09:01:53.230Z,25.40
2024-05-09T09:02:53.238Z,25.41
2024-05-09T09:03:53.443Z,25.41
2024-05-09T09:04:53.457Z,25.40
2024-05-09T09:05:53.454Z,25.41
2024-05-09T09:06:56.324Z,25.43
2024-05-09T09:07:53.518Z,25.41
2024-05-09T09:08:53.518Z,25.41
2024-05-09T09:09:53.540Z,25.44
2024-05-09T09:10:53.569Z,25.44
2024-05-09T09:11:53.570Z,25.44
2024-05-09T09:12:53.579Z,25.45
2024-05-09T09:13:53.539Z,25.47
2024-05-09T09:14:53.514Z,25.48
2024-05-09T09:15:53.570Z,25.47
2024-05-09T09:16:53.522Z,25.45
2024-05-09T09:17:53.599Z,25.47
2024-05-09T09:18:53.618Z,25.44
2024-05-09T09:19:53.591Z,25.47
2024-05-09T09:20:53.523Z,25.45
2024-05-09T09:21:53.533Z,25.45
2024-05-09T09:22:53.566Z,25.50
2024-05-09T09:23:53.527Z,25.45
2024-05-09T09:24:53.515Z,25.47
2024-05-09T09:25:53.501Z,25.47
2024-05-09T09:26:53.526Z,25.47
2024-05-09T09:27:53.599Z,25.45
2024-05-09T09:28:53.515Z,25.45
2024-05-09T09:29:53.503Z,25.45
2024-05-09T09:30:53.582Z,25.45
2024-05-09T09:31:53.537Z,25.48
2024-05-09T09:32:53.617Z,25.47
2024-05-09T09:33:53.864Z,25.47
2024-05-09T09:34:53.748Z,25.44
2024-05-09T09:35:53.746Z,25.45
2024-05-09T09:36:53.850Z,25.43
2024-05-09T09:37:53.916Z,25.45
2024-05-09T09:38:53.945Z,25.43
2024-05-09T09:39:54.071Z,25.45
2024-05-09T09:40:54.189Z,25.45
2024-05-09T09:41:54.145Z,25.44
2024-05-09T09:42:54.261Z,25.47
2024-05-09T09:43:54.313Z,25.45
2024-05-09T09:45:02.196Z,25.44
2024-05-09T09:45:55.588Z,25.44
2024-05-09T09:46:54.445Z,25.45
2024-05-09T09:47:54.501Z,25.45
2024-05-09T09:48:54.463Z,25.47
2024-05-09T09:49:54.463Z,25.48
2024-05-09T09:50:54.413Z,25.44
2024-05-09T09:51:54.501Z,25.45
2024-05-09T09:52:54.375Z,25.47
2024-05-09T09:53:54.424Z,25.45
2024-05-09T09:54:54.516Z,25.45
2024-05-09T09:55:54.589Z,25.45
2024-05-09T09:56:54.660Z,25.45
2024-05-09T09:57:54.865Z,25.50
2024-05-09T09:58:54.763Z,25.44
2024-05-09T09:59:54.850Z,25.45
2024-05-09T10:00:55.035Z,25.47
2024-05-09T10:01:55.009Z,25.47
2024-05-09T10:02:55.165Z,25.45
2024-05-09T10:03:55.328Z,25.45
2024-05-09T10:04:55.442Z,25.44
2024-05-09T10:05:55.309Z,25.45
2024-05-09T10:06:55.391Z,25.44
2024-05-09T10:07:55.424Z,25.44
2024-05-09T10:08:55.485Z,25.44
2024-05-09T10:09:55.645Z,25.45
2024-05-09T10:10:55.741Z,25.45
2024-05-09T10:12:55.735Z,25.45
2024-05-09T10:13:55.799Z,25.44
2024-05-09T10:14:55.863Z,25.44
2024-05-09T10:15:55.969Z,25.45
2024-05-09T10:16:55.982Z,25.44
2024-05-09T10:17:56.164Z,25.41
2024-05-09T10:18:56.293Z,25.44
2024-05-09T10:19:56.276Z,25.44
2024-05-09T10:20:56.349Z,25.41
2024-05-09T10:21:56.310Z,25.44
2024-05-09T10:22:56.338Z,25.44
2024-05-09T10:23:56.387Z,25.45
2024-05-09T10:24:57.461Z,25.45
2024-05-09T10:25:56.548Z,25.47
2024-05-09T10:26:56.583Z,25.48
2024-05-09T10:27:56.732Z,25.47
2024-05-09T10:28:56.731Z,25.45
2024-05-09T10:29:56.773Z,25.48
2024-05-09T10:30:56.861Z,25.47
2024-05-09T10:31:56.941Z,25.47
2024-05-09T10:32:57.106Z,25.47
2024-05-09T10:33:57.212Z,25.48
2024-05-09T10:34:57.202Z,25.48
2024-05-09T10:35:57.232Z,25.51
2024-05-09T10:36:57.328Z,25.51
2024-05-09T10:37:57.369Z,25.48
2024-05-09T10:38:57.419Z,25.50
2024-05-09T10:39:57.540Z,25.50
2024-05-09T10:40:57.559Z,25.50
2024-05-09T10:41:57.636Z,25.51
2024-05-09T10:42:57.790Z,25.50
2024-05-09T10:43:57.766Z,25.50
2024-05-09T10:44:57.852Z,25.50
2024-05-09T10:45:57.927Z,25.50
2024-05-09T10:46:58.001Z,25.51
2024-05-09T10:47:58.251Z,25.48
2024-05-09T10:48:58.227Z,25.48
2024-05-09T10:49:58.220Z,25.48
2024-05-09T10:50:58.279Z,25.48
2024-05-09T10:51:58.361Z,25.51
2024-05-09T10:52:58.418Z,25.51
2024-05-09T10:53:58.454Z,25.53
2024-05-09T10:54:59.578Z,25.54
2024-05-09T10:55:58.607Z,25.54
2024-05-09T10:56:58.685Z,25.54
2024-05-09T10:57:58.776Z,25.54
2024-05-09T10:58:58.793Z,25.51
2024-05-09T10:59:58.869Z,25.51
2024-05-09T11:01:00.065Z,25.53
2024-05-09T11:01:59.038Z,25.53
2024-05-09T11:02:59.114Z,25.53
2024-05-09T11:03:59.305Z,25.54
2024-05-09T11:04:59.350Z,25.55
2024-05-09T11:05:59.291Z,25.54
2024-05-09T11:07:00.988Z,25.55
2024-05-09T11:07:59.342Z,25.55
2024-05-09T11:08:59.351Z,25.55
2024-05-09T11:09:59.348Z,25.55
2024-05-09T11:10:59.447Z,25.55
2024-05-09T11:11:59.370Z,25.55
2024-05-09T11:12:59.417Z,25.57
2024-05-09T11:13:59.358Z,25.58
2024-05-09T11:14:59.327Z,25.55
2024-05-09T11:15:59.517Z,25.58
2024-05-09T11:16:59.333Z,25.60
2024-05-09T11:17:59.397Z,25.58
2024-05-09T11:18:59.693Z,25.60
2024-05-09T11:19:59.387Z,25.58
2024-05-09T11:20:59.348Z,25.57
2024-05-09T11:21:59.355Z,25.61
2024-05-09T11:22:59.355Z,25.58
2024-05-09T11:23:59.351Z,25.60
2024-05-09T11:24:59.388Z,25.61
2024-05-09T11:25:59.482Z,25.61
2024-05-09T11:26:59.362Z,25.60
2024-05-09T11:27:59.398Z,25.63
2024-05-09T11:28:59.371Z,25.64
2024-05-09T11:29:59.345Z,25.63
2024-05-09T11:30:59.402Z,25.60
2024-05-09T11:31:59.364Z,25.63
2024-05-09T11:32:59.505Z,25.60
2024-05-09T11:33:59.400Z,25.61
2024-05-09T11:34:59.341Z,25.63
2024-05-09T11:35:59.316Z,25.61
2024-05-09T11:36:59.387Z,25.64
2024-05-09T11:37:59.381Z,25.61
2024-05-09T11:38:59.344Z,25.63
2024-05-09T11:39:59.418Z,25.63
2024-05-09T11:40:59.337Z,25.64
2024-05-09T11:41:59.318Z,25.65
2024-05-09T11:42:59.452Z,25.63
2024-05-09T11:43:59.339Z,25.65
2024-05-09T11:44:59.372Z,25.64
2024-05-09T11:45:59.435Z,25.61
2024-05-09T11:46:59.337Z,25.65
2024-05-09T11:47:59.406Z,25.64
2024-05-09T11:48:59.535Z,25.63
2024-05-09T11:49:59.662Z,25.63
2024-05-09T11:50:59.398Z,25.64
2024-05-09T11:51:59.569Z,25.65
2024-05-09T11:52:59.511Z,25.64
2024-05-09T11:53:59.543Z,25.63
2024-05-09T11:54:59.633Z,25.63
2024-05-09T11:55:59.659Z,25.64
2024-05-09T11:56:59.722Z,25.63
2024-05-09T11:57:59.986Z,25.64
2024-05-09T11:58:59.846Z,25.67
2024-05-09T11:59:59.900Z,25.65
2024-05-09T12:01:00.007Z,25.65
2024-05-09T12:02:00.128Z,25.65
2024-05-09T12:03:00.037Z,25.67
2024-05-09T12:04:00.491Z,25.65
2024-05-09T12:05:00.324Z,25.65
2024-05-09T12:06:00.495Z,25.70
2024-05-09T12:07:00.304Z,25.67
2024-05-09T12:08:00.298Z,25.67
2024-05-09T12:09:00.392Z,25.64
2024-05-09T12:10:00.641Z,25.65
2024-05-09T12:11:00.722Z,25.63
2024-05-09T12:12:00.460Z,25.64
2024-05-09T12:13:00.579Z,25.61
2024-05-09T12:14:00.578Z,25.63
2024-05-09T12:15:00.686Z,25.63
2024-05-09T12:16:00.791Z,25.63
2024-05-09T12:17:00.786Z,25.58
2024-05-09T12:18:03.578Z,25.60
2024-05-09T12:19:00.904Z,25.61
2024-05-09T12:20:00.809Z,25.61
2024-05-09T12:21:00.832Z,25.60
2024-05-09T12:22:00.822Z,25.61
2024-05-09T12:23:00.785Z,25.60
2024-05-09T12:24:00.781Z,25.61
2024-05-09T12:25:00.871Z,25.63
2024-05-09T12:26:00.859Z,25.64
2024-05-09T12:27:00.797Z,25.63
2024-05-09T12:28:01.087Z,25.65
2024-05-09T12:29:00.801Z,25.65
2024-05-09T12:30:00.793Z,25.65
2024-05-09T12:31:01.161Z,25.63
2024-05-09T12:32:00.910Z,25.61
2024-05-09T12:33:00.898Z,25.63
2024-05-09T12:34:00.885Z,25.61
2024-05-09T12:35:00.882Z,25.61
2024-05-09T12:36:00.935Z,25.63
2024-05-09T12:37:00.864Z,25.61
2024-05-09T12:38:00.816Z,25.60
2024-05-09T12:39:00.808Z,25.61
2024-05-09T12:40:00.881Z,25.63
2024-05-09T12:41:00.815Z,25.61
2024-05-09T12:42:00.822Z,25.63
2024-05-09T12:43:00.898Z,25.61
2024-05-09T12:44:00.826Z,25.64
2024-05-09T12:45:00.872Z,25.61
2024-05-09T12:46:00.969Z,25.61
2024-05-09T12:47:00.833Z,25.63
2024-05-09T12:48:01.017Z,25.63
2024-05-09T12:49:01.319Z,25.61
2024-05-09T12:50:00.888Z,25.64
2024-05-09T12:51:00.831Z,25.63
2024-05-09T12:52:00.855Z,25.63
2024-05-09T12:53:01.326Z,25.61
2024-05-09T12:54:00.833Z,25.63
2024-05-09T12:55:00.906Z,25.61
2024-05-09T12:56:02.986Z,25.61
2024-05-09T12:57:00.842Z,25.61
2024-05-09T12:58:00.987Z,25.60
2024-05-09T12:59:00.849Z,25.60
2024-05-09T13:00:00.850Z,25.60